Time;durP1;ratioP1;P1;durP2;ratioP2;P2;SDS_P1;SDS_P2;PMS_P1;PMS_P2;Temp;Humidity;BMP_temperature;BMP_pressure;BME280_temperature;BME280_humidity;BME280_pressure;Samples;Min_cycle;Max_cycle;Signal;HPM_P1;HPM_P2
2023/09/21 03:00:44;;;;;;;1.10;0.90;;;22.50;55.30;;;;;;6115630;22;46657;31
2023/09/21 03:03:14;;;;;;;2.33;1.00;;;22.50;55.30;;;;;;4938564;28;52656;-85
2023/09/21 03:05:41;;;;;;;1.27;0.93;;;22.50;55.30;;;;;;4986407;28;45289;-84
2023/09/21 03:08:14;;;;;;;1.20;0.98;;;22.50;55.30;;;;;;4979890;28;45523;-85
2023/09/21 03:10:47;;;;;;;3.75;1.20;;;22.50;55.30;;;;;;4939346;28;44909;-85
2023/09/21 03:13:17;;;;;;;1.48;1.02;;;22.50;55.30;;;;;;4948892;28;45415;-85
2023/09/21 03:16:01;;;;;;;1.13;1.00;;;22.50;55.30;;;;;;4946771;28;45447;-86
2023/09/21 03:18:27;;;;;;;1.00;0.90;;;22.50;55.20;;;;;;4940063;28;45397;-85
2023/09/21 03:20:53;;;;;;;1.17;0.90;;;22.50;55.30;;;;;;4983103;28;44988;-86
2023/09/21 03:23:20;;;;;;;3.58;1.00;;;22.50;55.30;;;;;;4970243;28;46719;-86
2023/09/21 03:25:47;;;;;;;0.90;0.90;;;22.50;55.30;;;;;;4943596;28;45218;-86
2023/09/21 03:28:15;;;;;;;4.35;1.10;;;22.50;55.20;;;;;;4985497;28;45094;-85
2023/09/21 03:30:46;;;;;;;2.88;1.20;;;22.50;55.20;;;;;;4956330;28;44950;-86
2023/09/21 03:33:11;;;;;;;1.67;1.10;;;22.50;55.20;;;;;;4996989;28;46700;-86
2023/09/21 03:35:37;;;;;;;0.85;0.85;;;22.50;55.20;;;;;;4943187;28;45552;-86
2023/09/21 03:38:10;;;;;;;1.27;1.00;;;22.50;55.20;;;;;;4948946;28;45252;-86
2023/09/21 03:40:36;;;;;;;1.02;0.85;;;22.50;55.20;;;;;;4966559;28;44944;-86
2023/09/21 03:43:06;;;;;;;1.83;1.10;;;22.50;55.20;;;;;;4982954;28;46808;-85
2023/09/21 03:45:34;;;;;;;1.27;0.90;;;22.50;55.30;;;;;;4978738;28;45604;-87
2023/09/21 03:48:04;;;;;;;0.80;0.80;;;22.50;55.20;;;;;;4981291;28;45171;-85
2023/09/21 03:50:31;;;;;;;1.58;1.00;;;22.50;55.20;;;;;;4973553;28;45339;-85
2023/09/21 03:52:59;;;;;;;1.02;0.82;;;22.50;55.30;;;;;;4965627;28;46438;-86
2023/09/21 03:55:25;;;;;;;1.13;0.88;;;22.50;55.20;;;;;;4944559;28;45424;-86
2023/09/21 03:57:50;;;;;;;1.30;0.95;;;22.50;55.20;;;;;;4963331;28;45353;-87
2023/09/21 04:00:31;;;;;;;1.10;1.00;;;22.50;55.20;;;;;;4943707;28;45478;-87
2023/09/21 04:02:58;;;;;;;0.98;0.88;;;22.50;55.20;;;;;;4966513;28;46459;-86
2023/09/21 04:05:30;;;;;;;1.00;0.90;;;22.50;55.20;;;;;;4961838;28;46312;-88
2023/09/21 04:07:56;;;;;;;1.42;1.20;;;22.50;55.20;;;;;;4962406;28;45229;-86
2023/09/21 04:10:22;;;;;;;1.05;0.90;;;22.50;55.20;;;;;;4940671;28;45419;-85
2023/09/21 04:12:48;;;;;;;1.35;0.90;;;22.50;55.10;;;;;;4946696;28;46666;-86
2023/09/21 04:15:16;;;;;;;1.10;1.00;;;22.50;55.20;;;;;;4958296;28;45283;-86
2023/09/21 04:17:42;;;;;;;2.92;1.00;;;22.50;55.10;;;;;;4944505;28;45315;-86
2023/09/21 04:20:11;;;;;;;1.88;1.30;;;22.50;55.10;;;;;;4975643;28;45672;-86
2023/09/21 04:22:39;;;;;;;1.23;0.93;;;22.50;55.70;;;;;;4949286;28;45435;-86
2023/09/21 04:25:36;;;;;;;2.88;1.00;;;22.50;55.10;;;;;;4953955;28;45527;-86
2023/09/21 04:28:05;;;;;;;1.40;1.10;;;22.50;55.00;;;;;;4980325;28;45289;-85
2023/09/21 04:30:34;;;;;;;0.82;0.80;;;22.50;55.10;;;;;;4956167;28;45485;-86
2023/09/21 04:33:00;;;;;;;1.15;0.90;;;22.50;55.10;;;;;;4978695;28;45185;-85
2023/09/21 04:35:27;;;;;;;2.17;0.88;;;22.50;55.10;;;;;;4963688;28;45553;-87
2023/09/21 04:37:54;;;;;;;2.75;0.90;;;22.50;55.10;;;;;;4964394;28;45642;-86
2023/09/21 04:40:23;;;;;;;1.73;1.10;;;22.50;55.10;;;;;;4961382;28;45416;-86
2023/09/21 04:42:48;;;;;;;0.80;0.70;;;22.50;55.10;;;;;;4954395;28;45607;-86
2023/09/21 04:45:16;;;;;;;0.75;0.70;;;22.50;55.10;;;;;;4944930;28;45692;-86
2023/09/21 04:47:44;;;;;;;1.25;1.00;;;22.50;55.10;;;;;;4945283;28;45440;-87
2023/09/21 04:50:13;;;;;;;1.08;0.90;;;22.50;55.00;;;;;;4974330;28;45749;-86
2023/09/21 04:52:38;;;;;;;1.10;0.82;;;22.50;55.00;;;;;;4962156;28;45666;-87
2023/09/21 04:55:08;;;;;;;1.23;0.80;;;22.50;55.10;;;;;;4946179;28;45019;-88
2023/09/21 04:57:34;;;;;;;1.05;0.95;;;22.50;55.00;;;;;;4981302;28;45229;-86
2023/09/21 05:00:04;;;;;;;1.30;0.65;;;22.40;55.00;;;;;;4965923;28;45541;-83
2023/09/21 05:02:31;;;;;;;1.27;1.02;;;22.50;55.00;;;;;;4945561;28;47061;-85
2023/09/21 05:04:57;;;;;;;1.15;0.80;;;22.50;55.10;;;;;;4945087;28;45220;-86
2023/09/21 05:07:23;;;;;;;1.05;0.95;;;22.50;55.60;;;;;;4925412;28;45543;-86
2023/09/21 05:09:49;;;;;;;1.50;1.00;;;22.40;55.00;;;;;;4932707;28;45294;-85
2023/09/21 05:12:18;;;;;;;2.17;0.85;;;22.40;55.00;;;;;;4925227;28;45373;-85
2023/09/21 05:14:50;;;;;;;2.17;1.15;;;22.50;55.60;;;;;;4946222;28;45558;-89
2023/09/21 05:17:21;;;;;;;1.70;0.80;;;22.50;55.00;;;;;;4937356;28;44981;-86
2023/09/21 05:19:50;;;;;;;2.85;1.00;;;22.50;55.00;;;;;;4934989;28;45591;-85
2023/09/21 05:22:16;;;;;;;1.33;0.68;;;22.50;55.00;;;;;;4927825;28;46626;-85
2023/09/21 05:24:41;;;;;;;1.42;0.88;;;22.40;55.00;;;;;;4943941;28;45034;-86
2023/09/21 05:27:08;;;;;;;1.88;0.88;;;22.40;55.00;;;;;;4926685;28;44668;-86
2023/09/21 05:29:36;;;;;;;0.95;0.85;;;22.40;55.00;;;;;;4928097;28;45243;-86
2023/09/21 05:32:02;;;;;;;0.70;0.70;;;22.40;55.00;;;;;;4941387;28;47036;-85
2023/09/21 05:34:28;;;;;;;0.90;0.70;;;22.40;55.00;;;;;;4944682;28;45066;-85
2023/09/21 05:36:54;;;;;;;0.80;0.80;;;22.40;55.00;;;;;;4928419;28;45482;-85
2023/09/21 05:39:20;;;;;;;1.90;1.25;;;22.40;54.90;;;;;;4943223;28;45738;-85
2023/09/21 05:41:46;;;;;;;1.13;0.63;;;22.40;55.00;;;;;;4957810;28;45538;-85
2023/09/21 05:44:12;;;;;;;1.75;0.77;;;22.40;55.00;;;;;;4961838;28;45199;-85
2023/09/21 05:46:41;;;;;;;1.23;1.00;;;22.50;55.00;;;;;;4921614;28;45050;-85
2023/09/21 05:49:07;;;;;;;0.95;0.75;;;22.40;54.90;;;;;;4934575;28;45488;-85
2023/09/21 05:51:35;;;;;;;3.70;0.80;;;22.40;55.00;;;;;;4918214;28;46133;-85
2023/09/21 05:54:01;;;;;;;1.00;0.90;;;22.40;55.00;;;;;;4947708;28;45374;-85
2023/09/21 05:56:27;;;;;;;2.17;1.05;;;22.50;55.00;;;;;;4926915;28;45380;-85
2023/09/21 05:58:53;;;;;;;1.33;0.80;;;22.40;54.90;;;;;;4932775;28;45492;-85
2023/09/21 06:01:19;;;;;;;1.30;1.02;;;22.40;54.90;;;;;;4972810;28;45557;-86
2023/09/21 06:03:45;;;;;;;0.73;0.70;;;22.40;54.90;;;;;;4978287;28;45322;-85
2023/09/21 06:06:14;;;;;;;1.48;0.95;;;22.40;54.90;;;;;;4980459;28;45490;-85
2023/09/21 06:08:40;;;;;;;2.08;1.17;;;22.40;54.90;;;;;;4966937;28;45298;-86
2023/09/21 06:11:06;;;;;;;2.58;1.08;;;22.40;54.90;;;;;;4942425;28;46117;-87
2023/09/21 06:13:32;;;;;;;2.75;1.40;;;22.40;54.90;;;;;;4980197;28;45269;-84
2023/09/21 06:15:58;;;;;;;2.72;1.30;;;22.40;54.90;;;;;;4940106;28;45510;-86
2023/09/21 06:18:25;;;;;;;1.73;1.02;;;22.40;55.00;;;;;;4964487;28;44709;-85
2023/09/21 06:20:52;;;;;;;1.67;1.10;;;22.40;54.90;;;;;;4959402;28;47176;-87
2023/09/21 06:23:17;;;;;;;1.65;1.08;;;22.40;54.90;;;;;;4949336;28;45516;-85
2023/09/21 06:25:43;;;;;;;2.00;0.93;;;22.40;54.90;;;;;;4943837;28;45495;-85
2023/09/21 06:28:10;;;;;;;2.28;1.40;;;22.40;54.90;;;;;;4977532;28;45467;-85
2023/09/21 06:30:37;;;;;;;1.77;1.38;;;22.40;55.00;;;;;;4971829;28;45596;-88
2023/09/21 06:33:03;;;;;;;1.38;1.10;;;22.40;54.90;;;;;;4978138;28;45213;-85
2023/09/21 06:35:29;;;;;;;1.38;1.00;;;22.40;54.90;;;;;;4945695;28;45518;-85
2023/09/21 06:37:55;;;;;;;2.55;1.60;;;22.40;54.90;;;;;;4965821;28;45388;-88
2023/09/21 06:40:21;;;;;;;1.85;1.00;;;22.40;54.90;;;;;;4965161;28;45969;-85
2023/09/21 06:42:48;;;;;;;2.58;1.20;;;22.40;55.00;;;;;;4984546;28;45442;-85
2023/09/21 06:45:14;;;;;;;1.98;1.20;;;22.40;54.90;;;;;;4954969;28;44987;-89
2023/09/21 06:47:42;;;;;;;1.40;1.30;;;22.40;55.00;;;;;;4961111;28;45214;-83
2023/09/21 06:50:10;;;;;;;2.65;1.30;;;22.40;55.00;;;;;;4983135;28;45581;-84
2023/09/21 06:52:37;;;;;;;1.80;1.40;;;22.40;55.00;;;;;;4956601;28;45245;-82
2023/09/21 06:55:23;;;;;;;2.50;1.33;;;22.40;55.00;;;;;;4960629;28;45276;-87
2023/09/21 06:57:50;;;;;;;1.83;1.15;;;22.40;54.90;;;;;;4984987;28;45046;-87
2023/09/21 07:00:15;;;;;;;2.50;1.20;;;22.40;55.00;;;;;;4993370;28;47305;-84
2023/09/21 07:02:41;;;;;;;3.30;1.65;;;22.40;55.00;;;;;;4923384;28;45443;-83
2023/09/21 07:05:10;;;;;;;3.92;1.30;;;22.40;55.00;;;;;;4932422;28;45625;-88
2023/09/21 07:07:36;;;;;;;1.67;1.00;;;22.40;55.00;;;;;;4964609;28;45658;-83
2023/09/21 07:10:09;;;;;;;2.67;1.40;;;22.40;55.00;;;;;;4935188;28;46529;-83
2023/09/21 07:12:37;;;;;;;2.75;1.40;;;22.40;55.00;;;;;;4962733;28;45246;-84
2023/09/21 07:15:09;;;;;;;2.92;1.23;;;22.40;55.00;;;;;;4973956;28;45366;-85
2023/09/21 07:17:36;;;;;;;1.57;1.10;;;22.40;54.90;;;;;;4937406;28;45207;-83
2023/09/21 07:20:06;;;;;;;2.58;1.27;;;22.40;55.00;;;;;;4930574;28;45358;-87
2023/09/21 07:22:32;;;;;;;2.65;1.38;;;22.40;55.00;;;;;;4927986;28;45197;-83
2023/09/21 07:24:59;;;;;;;2.25;1.25;;;22.40;55.00;;;;;;4946693;28;45381;-83
2023/09/21 07:27:25;;;;;;;1.13;1.02;;;22.40;55.00;;;;;;4927402;28;45164;-84
2023/09/21 07:29:55;;;;;;;4.05;1.13;;;22.40;55.00;;;;;;4948709;28;46783;-85
2023/09/21 07:32:21;;;;;;;2.67;1.35;;;22.40;55.00;;;;;;4944668;28;45886;-83
2023/09/21 07:34:48;;;;;;;2.28;1.40;;;22.30;54.90;;;;;;4947589;28;45398;-87
2023/09/21 07:37:16;;;;;;;2.20;1.33;;;22.40;54.90;;;;;;4927972;28;46347;-84
2023/09/21 07:39:42;;;;;;;2.00;1.25;;;22.40;54.90;;;;;;4950337;28;45982;-83
2023/09/21 07:42:08;;;;;;;1.50;1.15;;;22.30;54.90;;;;;;4927287;28;45466;-83
2023/09/21 07:44:35;;;;;;;1.92;1.30;;;22.40;55.00;;;;;;4946868;28;45530;-85
2023/09/21 07:47:02;;;;;;;1.27;1.10;;;22.40;55.00;;;;;;4957240;28;45699;-84
2023/09/21 07:49:28;;;;;;;2.10;1.30;;;22.40;54.90;;;;;;4945688;28;46961;-87
2023/09/21 07:51:57;;;;;;;1.75;1.27;;;22.40;54.90;;;;;;4957852;28;45252;-84
2023/09/21 07:54:23;;;;;;;4.25;1.27;;;22.40;54.90;;;;;;4946716;28;45673;-84
2023/09/21 07:56:48;;;;;;;2.45;1.48;;;22.40;54.90;;;;;;4964805;28;45083;-84
2023/09/21 07:59:15;;;;;;;2.15;1.52;;;22.40;54.90;;;;;;4932856;28;46736;-84
2023/09/21 08:01:41;;;;;;;3.53;1.50;;;22.40;54.90;;;;;;4949385;28;45433;-84
2023/09/21 08:04:07;;;;;;;1.50;1.23;;;22.40;54.90;;;;;;4975379;28;45297;-84
2023/09/21 08:06:33;;;;;;;3.40;1.23;;;22.40;55.00;;;;;;4965266;28;45152;-84
2023/09/21 08:08:58;;;;;;;2.25;1.40;;;22.40;55.00;;;;;;4969546;28;45466;-84
2023/09/21 08:11:25;;;;;;;2.33;1.30;;;22.40;54.90;;;;;;4945195;28;45566;-81
2023/09/21 08:13:50;;;;;;;1.98;1.13;;;22.40;54.90;;;;;;4966001;28;45450;-84
2023/09/21 08:16:16;;;;;;;2.47;1.45;;;22.40;54.90;;;;;;4961157;28;45279;-83
2023/09/21 08:18:42;;;;;;;2.17;1.50;;;22.40;54.90;;;;;;4982468;28;47305;-84
2023/09/21 08:21:10;;;;;;;2.85;1.50;;;22.40;54.90;;;;;;4977693;28;46182;-84
2023/09/21 08:23:40;;;;;;;3.05;1.23;;;22.40;54.90;;;;;;4939424;28;45425;-84
2023/09/21 08:26:06;;;;;;;1.80;1.15;;;22.40;54.90;;;;;;4995188;28;45258;-84
2023/09/21 08:28:31;;;;;;;1.55;1.23;;;22.40;55.10;;;;;;4984626;28;47543;-84
2023/09/21 08:30:57;;;;;;;2.33;1.27;;;22.40;54.90;;;;;;4959141;28;45152;-84
2023/09/21 08:33:23;;;;;;;2.80;1.40;;;22.40;54.90;;;;;;4979420;28;45171;-85
2023/09/21 08:35:49;;;;;;;0.93;0.88;;;22.40;55.00;;;;;;4951445;28;45120;-84
2023/09/21 08:38:17;;;;;;;1.40;1.10;;;22.40;54.90;;;;;;4951660;28;46371;-84
2023/09/21 08:40:46;;;;;;;1.23;0.98;;;22.40;54.90;;;;;;4979630;28;45065;-84
2023/09/21 08:43:16;;;;;;;3.42;1.42;;;22.40;54.90;;;;;;4949320;28;45585;-88
2023/09/21 08:45:42;;;;;;;1.92;1.20;;;22.40;54.90;;;;;;4957106;28;45021;-84
2023/09/21 08:48:07;;;;;;;1.85;1.10;;;22.40;54.90;;;;;;4983549;28;46483;-84
2023/09/21 08:50:33;;;;;;;2.78;1.70;;;22.40;54.90;;;;;;4967833;28;45401;-83
2023/09/21 08:52:59;;;;;;;2.55;1.20;;;22.40;54.90;;;;;;4983346;28;45303;-84
2023/09/21 08:55:25;;;;;;;2.22;1.50;;;22.40;54.90;;;;;;4947101;28;44819;-84
2023/09/21 08:57:53;;;;;;;1.85;1.55;;;22.40;54.90;;;;;;4952807;28;46772;-84
2023/09/21 09:00:23;;;;;;;3.17;1.20;;;22.40;54.90;;;;;;4948990;28;46232;-84
2023/09/21 09:02:51;;;;;;;1.98;1.23;;;22.40;54.90;;;;;;4947613;28;45618;-84
2023/09/21 09:05:17;;;;;;;2.30;1.20;;;22.40;54.90;;;;;;4963130;28;45518;-84
2023/09/21 09:07:43;;;;;;;3.83;1.13;;;22.40;55.00;;;;;;4942137;28;46713;-83
2023/09/21 09:10:13;;;;;;;2.03;1.17;;;22.40;54.90;;;;;;4961967;28;46086;-87
2023/09/21 09:12:39;;;;;;;2.05;1.45;;;22.40;54.90;;;;;;4940583;28;45499;-84
2023/09/21 09:15:05;;;;;;;2.40;1.15;;;22.40;55.00;;;;;;4981182;28;44898;-87
2023/09/21 09:18:00;;;;;;;1.80;1.10;;;22.40;55.00;;;;;;4936326;28;45658;-83
2023/09/21 09:20:28;;;;;;;2.58;1.17;;;22.40;54.90;;;;;;4945160;28;45481;-84
2023/09/21 09:22:54;;;;;;;2.03;1.05;;;22.40;55.00;;;;;;4941182;28;44698;-85
2023/09/21 09:25:21;;;;;;;2.03;1.35;;;22.40;55.00;;;;;;4957893;28;45203;-85
2023/09/21 09:27:46;;;;;;;1.77;1.23;;;22.40;55.00;;;;;;4983951;28;45493;-83
2023/09/21 09:30:12;;;;;;;2.03;1.15;;;22.40;55.00;;;;;;4959432;28;45139;-86
2023/09/21 09:32:41;;;;;;;2.20;1.20;;;22.40;55.00;;;;;;4938694;28;45204;-85
2023/09/21 09:35:13;;;;;;;1.25;1.02;;;22.40;55.00;;;;;;4943513;28;45179;-85
2023/09/21 09:37:40;;;;;;;2.30;1.15;;;22.50;55.00;;;;;;4955040;28;45817;-85
2023/09/21 09:40:12;;;;;;;2.15;1.60;;;22.40;55.00;;;;;;4921924;28;45411;-87
2023/09/21 09:42:41;;;;;;;2.92;1.30;;;22.40;55.00;;;;;;4927611;28;45126;-84
2023/09/21 09:45:32;;;;;;;1.52;1.30;;;22.40;55.00;;;;;;4927534;28;45327;-85
2023/09/21 09:48:01;;;;;;;2.67;1.20;;;22.50;55.00;;;;;;4958698;28;45197;-84
2023/09/21 09:50:33;;;;;;;4.32;1.33;;;22.40;55.00;;;;;;4909220;28;45321;-84
2023/09/21 09:53:06;;;;;;;2.10;1.23;;;22.40;55.00;;;;;;4977230;28;44665;-84
2023/09/21 09:55:33;;;;;;;1.63;1.40;;;22.50;55.00;;;;;;4937592;28;45702;-83
2023/09/21 09:58:03;;;;;;;2.10;1.30;;;22.40;55.00;;;;;;4944626;28;48186;-84
2023/09/21 10:00:29;;;;;;;2.55;1.38;;;22.40;55.00;;;;;;4923496;28;45381;-82
2023/09/21 10:02:56;;;;;;;1.40;1.05;;;22.50;55.10;;;;;;4960221;28;46280;-83
2023/09/21 10:05:24;;;;;;;3.17;1.23;;;22.50;55.10;;;;;;4936981;28;45187;-84
2023/09/21 10:07:52;;;;;;;4.22;1.38;;;22.50;55.00;;;;;;4926111;28;46301;-85
2023/09/21 10:10:21;;;;;;;1.38;1.17;;;22.50;55.10;;;;;;4953707;28;45392;-84
2023/09/21 10:12:50;;;;;;;1.90;1.30;;;22.50;55.10;;;;;;4931060;28;45183;-84
2023/09/21 10:15:17;;;;;;;2.58;1.20;;;22.50;55.10;;;;;;4944326;28;44882;-85
2023/09/21 10:17:43;;;;;;;3.40;1.40;;;22.50;55.70;;;;;;4927281;28;46219;-84
2023/09/21 10:20:15;;;;;;;2.08;1.20;;;22.50;55.10;;;;;;4949698;28;45045;-86
2023/09/21 10:22:44;;;;;;;1.17;1.03;;;22.50;55.10;;;;;;4959324;28;45836;-87
2023/09/21 10:25:15;;;;;;;1.75;1.30;;;22.50;55.10;;;;;;4927596;28;45122;-84
2023/09/21 10:27:46;;;;;;;1.83;1.10;;;22.50;55.10;;;;;;4973231;28;45258;-84
2023/09/21 10:30:15;;;;;;;2.00;1.38;;;22.50;55.10;;;;;;4926264;28;45630;-83
2023/09/21 10:32:48;;;;;;;4.05;1.30;;;22.50;55.10;;;;;;4956787;28;46423;-83
2023/09/21 10:35:42;;;;;;;3.60;1.50;;;22.50;55.10;;;;;;4958014;28;45389;-85
2023/09/21 10:38:15;;;;;;;1.85;1.10;;;22.50;55.10;;;;;;4956834;28;45741;-85
2023/09/21 10:40:41;;;;;;;1.58;1.23;;;22.50;55.10;;;;;;4955765;28;45044;-84
2023/09/21 10:43:38;;;;;;;1.92;1.25;;;22.50;55.10;;;;;;4947880;28;45298;-89
2023/09/21 10:46:17;;;;;;;1.58;0.90;;;22.50;55.10;;;;;;4952461;28;45166;-84
2023/09/21 10:48:56;;;;;;;1.40;1.10;;;22.50;55.10;;;;;;4970980;28;46311;-84
2023/09/21 10:51:22;;;;;;;1.58;1.20;;;22.50;55.20;;;;;;4955121;28;45260;-84
2023/09/21 10:53:49;;;;;;;1.80;1.08;;;22.50;55.10;;;;;;4942613;28;44722;-85
2023/09/21 10:56:14;;;;;;;1.08;0.98;;;22.50;55.10;;;;;;4955642;28;45287;-84
2023/09/21 10:58:40;;;;;;;1.48;1.13;;;22.50;55.10;;;;;;4921739;28;45938;-83
2023/09/21 11:01:09;;;;;;;1.55;1.10;;;22.50;55.10;;;;;;4937050;28;45631;-84
2023/09/21 11:03:35;;;;;;;1.52;0.90;;;22.50;55.20;;;;;;4995654;28;45341;-83
2023/09/21 11:06:01;;;;;;;1.45;1.00;;;22.50;55.10;;;;;;4980227;28;45283;-83
2023/09/21 11:08:27;;;;;;;1.80;1.20;;;22.50;55.10;;;;;;4963603;28;45544;-84
2023/09/21 11:10:54;;;;;;;2.33;1.20;;;22.50;55.20;;;;;;4962387;28;46119;-84
2023/09/21 11:13:19;;;;;;;1.45;1.08;;;22.50;55.20;;;;;;4981357;28;45286;-84
2023/09/21 11:15:46;;;;;;;2.58;1.25;;;22.60;55.20;;;;;;4964961;28;46075;-83
2023/09/21 11:18:11;;;;;;;1.30;1.08;;;22.60;55.20;;;;;;4956207;28;45709;-84
2023/09/21 11:20:39;;;;;;;1.90;1.30;;;22.60;55.20;;;;;;4970303;28;45299;-84
2023/09/21 11:23:07;;;;;;;1.92;1.15;;;22.60;55.20;;;;;;4964477;28;46703;-83
2023/09/21 11:25:33;;;;;;;1.75;1.00;;;22.60;55.30;;;;;;4961585;28;46018;-84
2023/09/21 11:27:58;;;;;;;1.40;1.20;;;22.60;55.30;;;;;;4961682;28;45446;-84
2023/09/21 11:30:25;;;;;;;1.42;1.02;;;22.60;55.20;;;;;;4960305;28;45846;-84
2023/09/21 11:32:53;;;;;;;1.70;1.00;;;22.60;55.30;;;;;;4964609;28;45361;-83
2023/09/21 11:35:20;;;;;;;2.25;1.00;;;22.60;55.30;;;;;;4974801;28;46245;-84
2023/09/21 11:37:46;;;;;;;2.00;1.10;;;22.60;55.30;;;;;;4981098;28;45377;-85
2023/09/21 11:40:13;;;;;;;3.60;1.00;;;22.60;55.30;;;;;;4958594;28;44723;-85
2023/09/21 11:43:04;;;;;;;1.77;1.27;;;22.60;55.30;;;;;;4977804;28;45283;-84
2023/09/21 11:45:34;;;;;;;1.73;1.10;;;22.60;55.30;;;;;;4975445;28;46131;-84
2023/09/21 11:48:01;;;;;;;1.20;1.10;;;22.60;55.30;;;;;;4978224;28;46914;-84
2023/09/21 11:50:30;;;;;;;1.77;1.13;;;22.60;55.30;;;;;;4977197;28;45658;-87
2023/09/21 11:52:56;;;;;;;1.13;0.93;;;22.60;55.30;;;;;;4980069;28;45487;-84
2023/09/21 11:55:28;;;;;;;1.50;1.05;;;22.60;55.30;;;;;;4945450;28;45626;-84
2023/09/21 11:58:09;;;;;;;1.85;1.23;;;22.60;55.30;;;;;;4942093;28;46306;-84
2023/09/21 12:00:45;;;;;;;1.58;0.95;;;22.60;55.40;;;;;;4960821;28;45342;-84
2023/09/21 12:03:13;;;;;;;1.60;1.23;;;22.60;55.30;;;;;;4959748;28;45667;-84
2023/09/21 12:05:40;;;;;;;2.97;0.93;;;22.60;55.40;;;;;;4959659;28;44984;-84
2023/09/21 12:08:07;;;;;;;1.08;0.98;;;22.60;55.40;;;;;;4963848;28;46308;-87
2023/09/21 12:10:33;;;;;;;1.90;1.00;;;22.60;55.40;;;;;;4990023;28;45194;-84
2023/09/21 12:12:59;;;;;;;0.80;0.73;;;22.60;55.40;;;;;;4978507;28;45671;-85
2023/09/21 12:15:25;;;;;;;1.73;1.17;;;22.60;55.40;;;;;;4971596;28;45807;-83
2023/09/21 12:17:52;;;;;;;1.60;1.00;;;22.60;55.40;;;;;;4994946;28;45532;-83
2023/09/21 12:20:19;;;;;;;1.30;1.00;;;22.60;55.40;;;;;;4960240;28;45563;-86
2023/09/21 12:22:45;;;;;;;2.90;1.00;;;22.60;55.40;;;;;;4978568;28;44875;-83
2023/09/21 12:25:11;;;;;;;1.50;0.80;;;22.70;55.50;;;;;;4974595;28;45528;-83
2023/09/21 12:27:37;;;;;;;1.02;0.93;;;22.60;55.50;;;;;;4956983;28;46826;-84
2023/09/21 12:30:12;;;;;;;1.60;1.00;;;22.60;55.50;;;;;;4958785;28;45391;-88
2023/09/21 12:32:40;;;;;;;1.75;1.10;;;22.70;55.50;;;;;;4951160;28;45299;-84
2023/09/21 12:35:08;;;;;;;1.58;0.98;;;22.70;55.60;;;;;;4958108;28;45678;-84
2023/09/21 12:37:35;;;;;;;3.10;1.05;;;22.70;55.60;;;;;;4943177;28;46837;-84
2023/09/21 12:40:01;;;;;;;1.65;1.08;;;22.70;55.60;;;;;;4974639;28;45112;-84
2023/09/21 12:42:30;;;;;;;2.60;1.27;;;22.70;55.60;;;;;;4960812;28;45282;-84
2023/09/21 12:44:56;;;;;;;1.45;0.90;;;22.70;55.60;;;;;;4961984;28;45262;-83
2023/09/21 12:47:23;;;;;;;3.85;1.13;;;22.70;55.60;;;;;;4952952;28;46181;-84
2023/09/21 12:49:50;;;;;;;1.70;1.30;;;22.70;55.60;;;;;;4988621;28;45720;-84
2023/09/21 12:52:16;;;;;;;2.33;1.10;;;22.70;55.60;;;;;;4971306;28;45750;-84
2023/09/21 12:54:42;;;;;;;1.48;0.90;;;22.70;55.70;;;;;;4944742;28;45386;-83
2023/09/21 12:57:08;;;;;;;1.02;1.00;;;22.70;55.70;;;;;;4955909;28;46880;-84
2023/09/21 12:59:35;;;;;;;1.85;1.08;;;22.70;55.60;;;;;;4943408;28;45400;-83
2023/09/21 13:02:01;;;;;;;1.52;0.90;;;22.70;55.70;;;;;;4969235;28;45342;-84
2023/09/21 13:04:26;;;;;;;2.13;1.17;;;22.70;55.70;;;;;;4958194;28;45706;-83
2023/09/21 13:06:52;;;;;;;2.33;1.02;;;22.70;55.70;;;;;;4944605;28;46139;-84
2023/09/21 13:09:18;;;;;;;1.40;0.90;;;22.70;55.70;;;;;;4956562;28;45188;-83
2023/09/21 13:11:44;;;;;;;1.30;1.00;;;22.70;55.80;;;;;;4958942;28;45271;-84
2023/09/21 13:14:10;;;;;;;1.65;0.80;;;22.70;55.70;;;;;;4975084;28;45163;-84
2023/09/21 13:16:35;;;;;;;0.93;0.85;;;22.70;55.80;;;;;;4951528;28;46341;-84
2023/09/21 13:19:01;;;;;;;1.17;0.80;;;22.70;55.70;;;;;;4981309;28;45130;-84
2023/09/21 13:21:27;;;;;;;1.27;0.90;;;22.70;55.80;;;;;;4956251;28;46282;-84
2023/09/21 13:23:53;;;;;;;1.88;0.70;;;22.70;55.80;;;;;;4992146;28;45752;-83
2023/09/21 13:26:20;;;;;;;1.15;1.05;;;22.70;55.80;;;;;;4945329;28;46818;-84
2023/09/21 13:28:49;;;;;;;1.75;0.98;;;22.70;55.80;;;;;;4975070;28;45617;-83
2023/09/21 13:31:15;;;;;;;0.80;0.80;;;22.70;55.80;;;;;;4972110;28;45287;-82
2023/09/21 13:33:40;;;;;;;1.05;0.70;;;22.70;55.80;;;;;;4944721;28;45319;-83
2023/09/21 13:36:06;;;;;;;4.05;0.90;;;22.70;55.80;;;;;;4975896;28;46279;-84
2023/09/21 13:38:32;;;;;;;1.52;1.08;;;22.70;55.90;;;;;;4944720;28;44731;-86
2023/09/21 13:40:58;;;;;;;1.02;0.90;;;22.70;55.80;;;;;;4975541;28;45278;-84
2023/09/21 13:43:25;;;;;;;1.40;1.00;;;22.70;55.80;;;;;;4962142;28;45247;-84
2023/09/21 13:45:52;;;;;;;1.20;0.85;;;22.70;55.80;;;;;;4956718;28;45111;-84
2023/09/21 13:48:19;;;;;;;2.45;1.00;;;22.70;55.80;;;;;;4961380;28;45246;-84
2023/09/21 13:50:45;;;;;;;0.82;0.75;;;22.70;55.90;;;;;;4943828;28;45586;-83
2023/09/21 13:53:11;;;;;;;1.73;0.98;;;22.70;55.90;;;;;;4997596;28;45238;-83
2023/09/21 13:55:38;;;;;;;1.67;1.20;;;22.70;55.90;;;;;;4975078;28;45464;-84
2023/09/21 13:58:04;;;;;;;1.50;0.98;;;22.70;55.90;;;;;;4977619;28;45832;-83
2023/09/21 14:00:31;;;;;;;5.13;1.10;;;22.70;55.90;;;;;;4953754;28;45164;-85
2023/09/21 14:03:02;;;;;;;1.95;1.00;;;22.70;55.90;;;;;;4940297;28;44891;-84
2023/09/21 14:05:29;;;;;;;1.02;0.82;;;22.70;55.90;;;;;;4973565;28;45580;-84
2023/09/21 14:07:55;;;;;;;1.35;1.10;;;22.70;55.90;;;;;;4957873;28;46217;-84
2023/09/21 14:10:21;;;;;;;2.90;1.10;;;22.70;55.90;;;;;;4925060;28;45352;-84
2023/09/21 14:12:49;;;;;;;1.70;0.80;;;22.70;55.90;;;;;;4957378;28;45283;-84
2023/09/21 14:15:15;;;;;;;3.92;1.05;;;22.70;56.50;;;;;;4922751;28;46393;-84
2023/09/21 14:17:41;;;;;;;2.67;0.93;;;22.70;55.90;;;;;;4937391;28;45239;-84
2023/09/21 14:20:08;;;;;;;1.40;0.95;;;22.70;55.90;;;;;;4938347;28;46374;-87
2023/09/21 14:22:39;;;;;;;2.17;0.88;;;22.80;56.00;;;;;;4957012;28;45711;-84
2023/09/21 14:25:09;;;;;;;2.10;1.05;;;22.80;56.00;;;;;;4955921;28;45447;-87
2023/09/21 14:27:36;;;;;;;1.23;0.80;;;22.80;56.00;;;;;;4925320;28;45205;-84
2023/09/21 14:30:11;;;;;;;1.08;0.95;;;22.80;56.00;;;;;;4975342;28;45878;-83
2023/09/21 14:32:38;;;;;;;1.17;0.75;;;22.80;56.00;;;;;;4970768;28;45453;-84
2023/09/21 14:35:06;;;;;;;2.83;0.80;;;22.80;56.00;;;;;;4939585;28;46076;-84
2023/09/21 14:37:32;;;;;;;2.33;1.02;;;22.80;56.00;;;;;;4956816;28;45471;-81
2023/09/21 14:39:59;;;;;;;1.85;1.10;;;22.70;56.00;;;;;;4960994;28;46252;-83
2023/09/21 14:42:26;;;;;;;2.75;0.90;;;22.80;56.00;;;;;;4954093;28;45891;-83
2023/09/21 14:44:52;;;;;;;1.42;1.00;;;22.80;56.00;;;;;;4943603;28;46119;-84
2023/09/21 14:47:18;;;;;;;1.40;0.82;;;22.80;56.00;;;;;;4922154;28;45752;-84
2023/09/21 14:49:45;;;;;;;1.10;0.75;;;22.80;56.00;;;;;;4925050;28;45444;-84
2023/09/21 14:52:11;;;;;;;2.13;0.90;;;22.80;56.00;;;;;;4955962;28;44763;-83
2023/09/21 14:54:37;;;;;;;2.35;1.00;;;22.80;56.00;;;;;;4929962;28;45918;-84
2023/09/21 14:57:03;;;;;;;1.92;0.85;;;22.80;56.10;;;;;;4938995;28;45600;-84
2023/09/21 14:59:29;;;;;;;1.27;1.00;;;22.80;56.00;;;;;;4940162;28;46305;-84
2023/09/21 15:01:56;;;;;;;1.15;0.88;;;22.80;56.10;;;;;;4935474;28;45950;-84
2023/09/21 15:04:22;;;;;;;1.33;0.90;;;22.80;56.00;;;;;;4943307;28;46284;-84
2023/09/21 15:06:50;;;;;;;0.80;0.80;;;22.80;56.10;;;;;;4942226;28;44611;-84
2023/09/21 15:09:16;;;;;;;1.00;0.80;;;22.80;56.00;;;;;;4947372;28;45290;-83
2023/09/21 15:11:42;;;;;;;1.48;0.93;;;22.80;56.00;;;;;;4976620;28;45672;-83
2023/09/21 15:14:07;;;;;;;0.80;0.75;;;22.80;56.10;;;;;;4946225;28;46677;-83
2023/09/21 15:16:33;;;;;;;1.42;0.95;;;22.80;56.10;;;;;;4925243;28;45688;-84
2023/09/21 15:19:00;;;;;;;1.23;0.80;;;22.80;56.10;;;;;;4925801;28;44839;-83
2023/09/21 15:21:26;;;;;;;1.10;1.00;;;22.80;56.10;;;;;;4941155;28;45664;-84
2023/09/21 15:23:52;;;;;;;2.83;1.00;;;22.80;56.10;;;;;;4977074;28;45749;-84
2023/09/21 15:26:18;;;;;;;1.55;0.98;;;22.80;56.70;;;;;;4919026;28;45267;-83
2023/09/21 15:28:45;;;;;;;1.88;0.90;;;22.80;56.10;;;;;;4959652;28;45531;-84
2023/09/21 15:31:11;;;;;;;0.80;0.70;;;22.80;56.10;;;;;;4916923;28;45805;-84
2023/09/21 15:33:37;;;;;;;0.60;0.60;;;22.80;56.10;;;;;;4942994;28;45292;-85
2023/09/21 15:36:03;;;;;;;1.13;0.77;;;22.80;56.10;;;;;;4916551;28;45315;-85
2023/09/21 15:38:29;;;;;;;2.60;0.90;;;22.80;56.10;;;;;;4947162;28;45034;-84
2023/09/21 15:40:55;;;;;;;1.08;0.90;;;22.80;56.10;;;;;;4922992;28;45353;-85
2023/09/21 15:43:22;;;;;;;1.23;0.82;;;22.80;56.10;;;;;;4944187;28;46081;-83
2023/09/21 15:45:50;;;;;;;1.20;0.88;;;22.80;56.10;;;;;;4970041;28;45251;-83
2023/09/21 15:48:16;;;;;;;1.38;1.00;;;22.80;56.10;;;;;;4946207;28;44685;-82
2023/09/21 15:50:42;;;;;;;0.95;0.68;;;22.80;56.10;;;;;;4951790;28;45790;-84